KSTJ

Rosecrans Memorial Airport

St Joseph, Missouri, USA
METAR KSTJ 151853Z 01011KT 1/2SM FZFG VV010 M11/M12 A3010 RMK AO2 SNEMM SLP208 P0003 T11111122 RVRNO $
Observed Flight Rules
Feb-15 @ 18:53 UTC (17 minutes ago) Instrument Flight Rules
Wind Visibility Clouds Conditions
10° at 11 knots 1/2 miles
  • Vertical visibility at 1,000' AGL
  • Freezing
  • Fog
Temperatures Readings Precipitation
Current -11°C / 12°F
Dewpoint -12°C / 10°F
Humidity 92%
Altimeter 30.1" Hg
Pressure 1020.8 hPa
Elevation 247
Current Rain 0.03
METAR KSTJ 151853Z 01011KT 1/2SM FZFG VV010 M11/M12 A3010 RMK AO2 SNEMM SLP208 P0003 T11111122 RVRNO $
Observed Flight Rules
Feb-15 @ 18:53 UTC
(17 minutes ago)
LIFR
Wind Visibility
10° at 11 knots 1/2 miles
Clouds
  • Vertical visibility at 1,000' AGL
Conditions
  • Freezing
  • Fog
Temperature Dewpoint
-11°C / 12°F -12°C / 10°F
Humidity Altimeter Pressure
92% 30.1" Hg 1020.8 hPa
Current Rain
0.03